sensor_id;sensor_type;location;lat;lon;timestamp;pressure;altitude;pressure_sealevel;temperature;humidity
32789;BME280;19141;48.980;8.410;2022-10-12T04:22:50;100897.41;;;9.31;100.00
32789;BME280;19141;48.980;8.410;2022-10-12T04:25:15;100902.84;;;9.39;100.00
32789;BME280;19141;48.980;8.410;2022-10-12T04:27:41;100889.00;;;9.36;100.00
32789;BME280;19141;48.980;8.410;2022-10-12T04:30:06;100896.13;;;9.35;100.00
32789;BME280;19141;48.980;8.410;2022-10-12T04:32:32;100894.06;;;9.29;100.00
32789;BME280;19141;48.980;8.410;2022-10-12T04:34:57;100906.09;;;9.33;100.00
32789;BME280;19141;48.980;8.410;2022-10-12T04:37:25;100905.94;;;9.35;100.00
32789;BME280;19141;48.980;8.410;2022-10-12T04:39:50;100905.38;;;9.31;100.00
32789;BME280;19141;48.980;8.410;2022-10-12T04:42:16;100899.78;;;9.34;100.00
32789;BME280;19141;48.980;8.410;2022-10-12T04:44:41;100902.72;;;9.31;100.00
32789;BME280;19141;48.980;8.410;2022-10-12T04:47:07;100908.88;;;9.32;100.00
32789;BME280;19141;48.980;8.410;2022-10-12T04:49:33;100908.88;;;9.32;100.00
32789;BME280;19141;48.980;8.410;2022-10-12T04:51:58;100923.47;;;9.28;100.00
32789;BME280;19141;48.980;8.410;2022-10-12T04:54:23;100910.94;;;9.20;100.00
32789;BME280;19141;48.980;8.410;2022-10-12T04:56:49;100920.66;;;9.29;100.00
32789;BME280;19141;48.980;8.410;2022-10-12T04:59:14;100925.28;;;9.27;100.00
32789;BME280;19141;48.980;8.410;2022-10-12T05:01:39;100933.56;;;9.24;100.00
32789;BME280;19141;48.980;8.410;2022-10-12T05:04:05;100932.63;;;9.15;100.00
32789;BME280;19141;48.980;8.410;2022-10-12T05:06:30;100935.28;;;9.15;100.00
32789;BME280;19141;48.980;8.410;2022-10-12T05:08:56;100932.47;;;9.17;100.00
32789;BME280;19141;48.980;8.410;2022-10-12T05:11:21;100924.34;;;9.18;100.00
32789;BME280;19141;48.980;8.410;2022-10-12T05:13:46;100928.44;;;9.13;100.00
32789;BME280;19141;48.980;8.410;2022-10-12T05:16:12;100922.56;;;9.09;100.00
32789;BME280;19141;48.980;8.410;2022-10-12T05:18:37;100928.47;;;9.03;100.00
32789;BME280;19141;48.980;8.410;2022-10-12T05:21:02;100935.63;;;9.03;100.00
32789;BME280;19141;48.980;8.410;2022-10-12T05:23:28;100929.31;;;9.04;100.00
32789;BME280;19141;48.980;8.410;2022-10-12T05:25:54;100928.31;;;9.05;100.00
32789;BME280;19141;48.980;8.410;2022-10-12T05:28:20;100928.91;;;8.98;100.00
32789;BME280;19141;48.980;8.410;2022-10-12T05:30:49;100933.78;;;9.03;100.00
32789;BME280;19141;48.980;8.410;2022-10-12T05:33:15;100924.59;;;8.97;100.00
32789;BME280;19141;48.980;8.410;2022-10-12T05:35:40;100928.63;;;9.02;100.00
32789;BME280;19141;48.980;8.410;2022-10-12T05:38:05;100928.22;;;8.96;100.00
32789;BME280;19141;48.980;8.410;2022-10-12T05:40:31;100925.56;;;8.96;100.00
32789;BME280;19141;48.980;8.410;2022-10-12T05:42:56;100926.97;;;9.01;100.00
32789;BME280;19141;48.980;8.410;2022-10-12T05:45:21;100918.53;;;9.05;100.00
32789;BME280;19141;48.980;8.410;2022-10-12T05:47:47;100923.41;;;9.10;100.00
32789;BME280;19141;48.980;8.410;2022-10-12T05:50:12;100923.13;;;9.13;100.00
32789;BME280;19141;48.980;8.410;2022-10-12T05:52:38;100927.31;;;9.15;100.00
32789;BME280;19141;48.980;8.410;2022-10-12T05:55:03;100925.31;;;9.17;100.00
32789;BME280;19141;48.980;8.410;2022-10-12T05:57:29;100919.84;;;9.19;100.00
32789;BME280;19141;48.980;8.410;2022-10-12T05:59:54;100925.16;;;9.19;100.00
32789;BME280;19141;48.980;8.410;2022-10-12T06:02:19;100922.41;;;9.11;100.00
32789;BME280;19141;48.980;8.410;2022-10-12T06:04:45;100929.56;;;9.10;100.00
32789;BME280;19141;48.980;8.410;2022-10-12T06:07:10;100936.94;;;9.16;100.00
32789;BME280;19141;48.980;8.410;2022-10-12T06:09:36;100931.19;;;9.21;100.00
32789;BME280;19141;48.980;8.410;2022-10-12T06:12:03;100944.03;;;9.25;100.00
32789;BME280;19141;48.980;8.410;2022-10-12T06:14:29;100941.09;;;9.29;100.00
32789;BME280;19141;48.980;8.410;2022-10-12T06:16:54;100937.88;;;9.25;100.00
32789;BME280;19141;48.980;8.410;2022-10-12T06:19:20;100948.38;;;9.27;100.00
32789;BME280;19141;48.980;8.410;2022-10-12T06:21:45;100942.59;;;9.31;100.00
32789;BME280;19141;48.980;8.410;2022-10-12T06:24:10;100950.31;;;9.34;100.00
32789;BME280;19141;48.980;8.410;2022-10-12T06:26:36;100949.72;;;9.40;100.00
32789;BME280;19141;48.980;8.410;2022-10-12T06:29:01;100947.56;;;9.44;100.00
32789;BME280;19141;48.980;8.410;2022-10-12T06:31:27;100953.59;;;9.46;100.00
32789;BME280;19141;48.980;8.410;2022-10-12T06:33:53;100950.78;;;9.47;100.00
32789;BME280;19141;48.980;8.410;2022-10-12T06:36:19;100954.97;;;9.50;100.00
32789;BME280;19141;48.980;8.410;2022-10-12T06:38:44;100949.88;;;9.57;100.00
32789;BME280;19141;48.980;8.410;2022-10-12T06:41:10;100954.59;;;9.63;100.00
32789;BME280;19141;48.980;8.410;2022-10-12T06:43:36;100957.81;;;9.66;100.00
32789;BME280;19141;48.980;8.410;2022-10-12T06:46:02;100955.38;;;9.73;100.00
32789;BME280;19141;48.980;8.410;2022-10-12T06:48:28;100957.56;;;9.77;100.00
32789;BME280;19141;48.980;8.410;2022-10-12T06:50:53;100950.97;;;9.82;100.00
32789;BME280;19141;48.980;8.410;2022-10-12T06:53:19;100948.88;;;9.85;100.00
32789;BME280;19141;48.980;8.410;2022-10-12T06:55:44;100946.88;;;9.87;100.00
32789;BME280;19141;48.980;8.410;2022-10-12T06:58:10;100952.44;;;9.94;100.00
32789;BME280;19141;48.980;8.410;2022-10-12T07:00:35;100939.41;;;9.91;100.00
32789;BME280;19141;48.980;8.410;2022-10-12T07:03:01;100943.78;;;9.92;100.00
32789;BME280;19141;48.980;8.410;2022-10-12T07:05:26;100945.88;;;10.06;100.00
32789;BME280;19141;48.980;8.410;2022-10-12T07:07:52;100952.28;;;10.13;100.00
32789;BME280;19141;48.980;8.410;2022-10-12T07:10:17;100948.84;;;10.21;100.00
32789;BME280;19141;48.980;8.410;2022-10-12T07:12:43;100956.41;;;10.25;100.00
32789;BME280;19141;48.980;8.410;2022-10-12T07:15:09;100952.59;;;10.28;100.00
32789;BME280;19141;48.980;8.410;2022-10-12T07:17:34;100965.38;;;10.24;100.00
32789;BME280;19141;48.980;8.410;2022-10-12T07:20:00;100967.47;;;10.21;100.00
32789;BME280;19141;48.980;8.410;2022-10-12T07:22:26;100951.97;;;10.34;100.00
32789;BME280;19141;48.980;8.410;2022-10-12T07:24:51;100955.69;;;10.41;100.00
32789;BME280;19141;48.980;8.410;2022-10-12T07:27:17;100960.41;;;10.47;100.00
32789;BME280;19141;48.980;8.410;2022-10-12T07:29:42;100967.09;;;10.51;100.00
32789;BME280;19141;48.980;8.410;2022-10-12T07:32:07;100962.28;;;10.55;100.00
32789;BME280;19141;48.980;8.410;2022-10-12T07:34:33;100961.16;;;10.57;100.00
32789;BME280;19141;48.980;8.410;2022-10-12T07:36:59;100962.16;;;10.56;100.00
32789;BME280;19141;48.980;8.410;2022-10-12T07:39:25;100960.38;;;10.65;100.00
32789;BME280;19141;48.980;8.410;2022-10-12T07:41:51;100967.34;;;10.66;100.00
32789;BME280;19141;48.980;8.410;2022-10-12T07:44:17;100955.06;;;10.73;100.00
32789;BME280;19141;48.980;8.410;2022-10-12T07:46:44;100954.44;;;10.79;100.00
32789;BME280;19141;48.980;8.410;2022-10-12T07:49:11;100962.28;;;10.81;100.00
32789;BME280;19141;48.980;8.410;2022-10-12T07:51:36;100957.78;;;10.81;100.00
32789;BME280;19141;48.980;8.410;2022-10-12T07:54:02;100954.03;;;10.92;100.00
32789;BME280;19141;48.980;8.410;2022-10-12T07:56:27;100938.41;;;10.97;100.00
32789;BME280;19141;48.980;8.410;2022-10-12T07:58:54;100944.72;;;10.96;100.00
32789;BME280;19141;48.980;8.410;2022-10-12T08:01:22;100952.75;;;11.04;100.00
32789;BME280;19141;48.980;8.410;2022-10-12T08:03:49;100955.63;;;11.11;100.00
32789;BME280;19141;48.980;8.410;2022-10-12T08:06:20;100953.31;;;11.16;100.00
32789;BME280;19141;48.980;8.410;2022-10-12T08:08:46;100949.81;;;11.16;100.00
32789;BME280;19141;48.980;8.410;2022-10-12T08:11:14;100949.28;;;11.12;100.00
32789;BME280;19141;48.980;8.410;2022-10-12T08:13:40;100954.53;;;11.22;100.00
32789;BME280;19141;48.980;8.410;2022-10-12T08:16:09;100959.03;;;11.29;100.00
32789;BME280;19141;48.980;8.410;2022-10-12T08:18:34;100965.72;;;11.33;100.00
32789;BME280;19141;48.980;8.410;2022-10-12T08:21:06;100952.25;;;11.35;100.00
32789;BME280;19141;48.980;8.410;2022-10-12T08:23:33;100961.44;;;11.49;100.00
32789;BME280;19141;48.980;8.410;2022-10-12T08:25:59;100963.97;;;11.58;100.00
32789;BME280;19141;48.980;8.410;2022-10-12T08:28:24;100969.84;;;11.70;100.00
32789;BME280;19141;48.980;8.410;2022-10-12T08:30:50;100962.84;;;11.77;100.00
32789;BME280;19141;48.980;8.410;2022-10-12T08:33:16;100963.06;;;11.84;100.00
32789;BME280;19141;48.980;8.410;2022-10-12T08:35:42;100971.78;;;11.94;100.00
32789;BME280;19141;48.980;8.410;2022-10-12T08:38:09;100966.75;;;11.99;100.00
32789;BME280;19141;48.980;8.410;2022-10-12T08:46:03;100961.94;;;12.43;100.00
32789;BME280;19141;48.980;8.410;2022-10-12T08:50:58;100955.75;;;12.59;99.87
32789;BME280;19141;48.980;8.410;2022-10-12T08:56:25;100960.75;;;12.79;98.50
32789;BME280;19141;48.980;8.410;2022-10-12T08:58:52;100960.06;;;12.85;98.21
32789;BME280;19141;48.980;8.410;2022-10-12T09:07:05;100964.84;;;12.97;94.90
32789;BME280;19141;48.980;8.410;2022-10-12T09:14:44;100953.91;;;13.32;94.62
32789;BME280;19141;48.980;8.410;2022-10-12T09:17:32;100961.84;;;13.48;95.05
32789;BME280;19141;48.980;8.410;2022-10-12T09:20:22;100950.50;;;13.77;96.87
32789;BME280;19141;48.980;8.410;2022-10-12T09:22:54;100951.78;;;13.81;90.09
32789;BME280;19141;48.980;8.410;2022-10-12T09:25:23;100955.28;;;13.90;89.72
32789;BME280;19141;48.980;8.410;2022-10-12T09:27:50;100952.41;;;13.91;90.92
32789;BME280;19141;48.980;8.410;2022-10-12T09:30:17;100961.88;;;14.02;89.52
32789;BME280;19141;48.980;8.410;2022-10-12T09:32:49;100966.72;;;14.21;89.43
32789;BME280;19141;48.980;8.410;2022-10-12T09:35:19;100963.81;;;14.31;89.21
32789;BME280;19141;48.980;8.410;2022-10-12T09:37:49;100967.47;;;14.61;86.31
32789;BME280;19141;48.980;8.410;2022-10-12T09:40:34;100961.06;;;14.62;85.67
32789;BME280;19141;48.980;8.410;2022-10-12T09:43:01;100969.34;;;15.05;89.54
32789;BME280;19141;48.980;8.410;2022-10-12T09:45:29;100970.72;;;15.30;85.42
32789;BME280;19141;48.980;8.410;2022-10-12T09:50:43;100979.94;;;15.72;83.53
32789;BME280;19141;48.980;8.410;2022-10-12T09:53:28;100970.81;;;16.09;82.04
32789;BME280;19141;48.980;8.410;2022-10-12T09:58:27;100963.09;;;16.98;76.66
32789;BME280;19141;48.980;8.410;2022-10-12T10:03:50;100961.25;;;17.47;71.04
32789;BME280;19141;48.980;8.410;2022-10-12T10:06:29;100959.63;;;18.47;70.38
32789;BME280;19141;48.980;8.410;2022-10-12T10:08:55;100959.63;;;18.40;66.29
32789;BME280;19141;48.980;8.410;2022-10-12T10:11:25;100962.72;;;18.90;69.55
32789;BME280;19141;48.980;8.410;2022-10-12T10:13:53;100964.41;;;19.49;65.40
32789;BME280;19141;48.980;8.410;2022-10-12T10:16:22;100953.13;;;19.72;63.39
32789;BME280;19141;48.980;8.410;2022-10-12T10:23:58;100951.25;;;20.36;58.21
32789;BME280;19141;48.980;8.410;2022-10-12T10:26:25;100949.94;;;20.13;62.67
32789;BME280;19141;48.980;8.410;2022-10-12T10:32:05;100945.31;;;20.20;57.30
32789;BME280;19141;48.980;8.410;2022-10-12T10:34:36;100947.03;;;20.90;55.75
32789;BME280;19141;48.980;8.410;2022-10-12T10:37:03;100947.13;;;21.20;54.25
32789;BME280;19141;48.980;8.410;2022-10-12T10:39:51;100944.97;;;22.18;51.64
32789;BME280;19141;48.980;8.410;2022-10-12T10:42:18;100941.03;;;22.91;49.74
32789;BME280;19141;48.980;8.410;2022-10-12T10:44:50;100942.50;;;22.17;52.56
32789;BME280;19141;48.980;8.410;2022-10-12T10:47:17;100940.03;;;21.85;53.76
32789;BME280;19141;48.980;8.410;2022-10-12T10:49:57;100939.69;;;22.35;51.65
32789;BME280;19141;48.980;8.410;2022-10-12T10:52:33;100942.78;;;23.49;48.85
32789;BME280;19141;48.980;8.410;2022-10-12T10:55:21;100936.09;;;23.80;47.56
32789;BME280;19141;48.980;8.410;2022-10-12T11:00:19;100927.94;;;24.64;45.38
32789;BME280;19141;48.980;8.410;2022-10-12T11:02:53;100921.50;;;24.71;45.23
32789;BME280;19141;48.980;8.410;2022-10-12T11:05:39;100920.84;;;24.63;47.43
32789;BME280;19141;48.980;8.410;2022-10-12T11:08:16;100919.47;;;24.44;47.51
32789;BME280;19141;48.980;8.410;2022-10-12T11:11:01;100917.72;;;25.32;44.30
32789;BME280;19141;48.980;8.410;2022-10-12T11:13:37;100911.47;;;25.59;42.74
32789;BME280;19141;48.980;8.410;2022-10-12T11:16:33;100914.44;;;25.30;44.30
32789;BME280;19141;48.980;8.410;2022-10-12T11:19:05;100908.28;;;25.94;43.25
32789;BME280;19141;48.980;8.410;2022-10-12T11:21:46;100906.41;;;25.46;43.63
32789;BME280;19141;48.980;8.410;2022-10-12T11:24:42;100906.72;;;25.49;43.16
32789;BME280;19141;48.980;8.410;2022-10-12T11:27:27;100899.53;;;25.65;41.37
32789;BME280;19141;48.980;8.410;2022-10-12T11:30:00;100902.09;;;26.36;40.96
32789;BME280;19141;48.980;8.410;2022-10-12T11:35:26;100891.16;;;24.62;45.29
32789;BME280;19141;48.980;8.410;2022-10-12T11:37:59;100887.25;;;24.97;43.59
32789;BME280;19141;48.980;8.410;2022-10-12T11:40:28;100890.78;;;24.53;45.09
32789;BME280;19141;48.980;8.410;2022-10-12T11:42:59;100876.56;;;25.34;43.53
32789;BME280;19141;48.980;8.410;2022-10-12T11:45:33;100883.53;;;26.38;41.02
32789;BME280;19141;48.980;8.410;2022-10-12T11:48:13;100868.69;;;26.61;40.74
32789;BME280;19141;48.980;8.410;2022-10-12T11:50:45;100869.66;;;26.97;40.95
32789;BME280;19141;48.980;8.410;2022-10-12T11:53:24;100869.69;;;26.12;41.46
32789;BME280;19141;48.980;8.410;2022-10-12T11:56:09;100864.19;;;25.75;42.38
32789;BME280;19141;48.980;8.410;2022-10-12T11:58:41;100860.78;;;24.92;43.25
32789;BME280;19141;48.980;8.410;2022-10-12T12:11:31;100844.84;;;26.51;40.38
32789;BME280;19141;48.980;8.410;2022-10-12T12:19:41;100847.25;;;26.95;40.29
32789;BME280;19141;48.980;8.410;2022-10-12T12:22:22;100840.72;;;26.43;41.13
32789;BME280;19141;48.980;8.410;2022-10-12T12:29:52;100824.66;;;27.10;39.29
32789;BME280;19141;48.980;8.410;2022-10-12T12:32:18;100825.59;;;26.78;39.92
32789;BME280;19141;48.980;8.410;2022-10-12T12:35:03;100816.63;;;26.93;39.54
32789;BME280;19141;48.980;8.410;2022-10-12T12:37:30;100820.56;;;27.17;39.67
32789;BME280;19141;48.980;8.410;2022-10-12T12:39:58;100816.13;;;27.01;39.34
32789;BME280;19141;48.980;8.410;2022-10-12T12:42:26;100817.53;;;27.19;40.26
32789;BME280;19141;48.980;8.410;2022-10-12T12:44:52;100809.19;;;27.71;38.70
32789;BME280;19141;48.980;8.410;2022-10-12T12:47:35;100807.63;;;26.97;39.82
32789;BME280;19141;48.980;8.410;2022-10-12T12:50:29;100802.06;;;27.75;38.20
32789;BME280;19141;48.980;8.410;2022-10-12T12:53:04;100803.41;;;27.52;38.79
32789;BME280;19141;48.980;8.410;2022-10-12T12:55:35;100812.41;;;27.33;39.51
32789;BME280;19141;48.980;8.410;2022-10-12T12:58:19;100802.53;;;27.21;39.54
32789;BME280;19141;48.980;8.410;2022-10-12T13:03:44;100794.50;;;26.89;39.87
32789;BME280;19141;48.980;8.410;2022-10-12T13:20:26;100791.59;;;24.49;46.33
32789;BME280;19141;48.980;8.410;2022-10-12T13:22:54;100788.88;;;23.94;47.22
32789;BME280;19141;48.980;8.410;2022-10-12T13:28:26;100785.47;;;23.24;49.42
32789;BME280;19141;48.980;8.410;2022-10-12T13:31:19;100789.81;;;22.57;52.34
32789;BME280;19141;48.980;8.410;2022-10-12T13:34:02;100782.50;;;22.57;52.34
32789;BME280;19141;48.980;8.410;2022-10-12T13:36:31;100786.28;;;22.56;52.35
32789;BME280;19141;48.980;8.410;2022-10-12T13:39:06;100791.63;;;22.39;52.24
32789;BME280;19141;48.980;8.410;2022-10-12T13:41:37;100782.97;;;21.95;54.39
32789;BME280;19141;48.980;8.410;2022-10-12T13:44:05;100785.38;;;22.15;53.85
32789;BME280;19141;48.980;8.410;2022-10-12T13:46:54;100779.00;;;22.10;54.14
32789;BME280;19141;48.980;8.410;2022-10-12T13:52:02;100776.41;;;21.91;55.21
32789;BME280;19141;48.980;8.410;2022-10-12T13:54:45;100763.28;;;21.77;55.40
32789;BME280;19141;48.980;8.410;2022-10-12T13:57:20;100769.72;;;21.40;57.35
32789;BME280;19141;48.980;8.410;2022-10-12T13:59:53;100768.78;;;21.47;58.07
32789;BME280;19141;48.980;8.410;2022-10-12T14:02:28;100769.75;;;21.52;57.90
32789;BME280;19141;48.980;8.410;2022-10-12T14:04:58;100761.03;;;21.20;58.00
32789;BME280;19141;48.980;8.410;2022-10-12T14:07:31;100765.34;;;21.09;59.24
32789;BME280;19141;48.980;8.410;2022-10-12T14:10:02;100775.22;;;20.85;59.66
32789;BME280;19141;48.980;8.410;2022-10-12T14:12:29;100769.94;;;21.09;59.68
32789;BME280;19141;48.980;8.410;2022-10-12T14:14:56;100765.03;;;20.88;60.00
32789;BME280;19141;48.980;8.410;2022-10-12T14:17:22;100769.28;;;20.40;62.69
32789;BME280;19141;48.980;8.410;2022-10-12T14:19:51;100762.81;;;20.04;64.32
32789;BME280;19141;48.980;8.410;2022-10-12T14:25:07;100754.72;;;19.79;65.84
32789;BME280;19141;48.980;8.410;2022-10-12T14:27:38;100753.94;;;19.97;65.11
32789;BME280;19141;48.980;8.410;2022-10-12T14:30:19;100754.16;;;19.96;65.98
32789;BME280;19141;48.980;8.410;2022-10-12T14:32:45;100752.22;;;20.03;66.47
32789;BME280;19141;48.980;8.410;2022-10-12T14:37:44;100769.00;;;19.55;66.90
32789;BME280;19141;48.980;8.410;2022-10-12T14:45:31;100759.47;;;19.59;67.21
32789;BME280;19141;48.980;8.410;2022-10-12T14:47:56;100755.81;;;19.72;67.26
32789;BME280;19141;48.980;8.410;2022-10-12T14:50:24;100761.28;;;19.90;66.34
32789;BME280;19141;48.980;8.410;2022-10-12T14:52:52;100756.88;;;19.71;66.20
32789;BME280;19141;48.980;8.410;2022-10-12T14:55:22;100760.88;;;19.87;66.39
32789;BME280;19141;48.980;8.410;2022-10-12T14:57:48;100757.47;;;19.98;64.83
32789;BME280;19141;48.980;8.410;2022-10-12T15:00:15;100765.69;;;19.85;65.44
32789;BME280;19141;48.980;8.410;2022-10-12T15:02:42;100763.22;;;19.83;66.59
32789;BME280;19141;48.980;8.410;2022-10-12T15:05:10;100761.84;;;19.74;66.38
32789;BME280;19141;48.980;8.410;2022-10-12T15:07:35;100766.88;;;19.70;66.72
32789;BME280;19141;48.980;8.410;2022-10-12T15:10:01;100753.84;;;19.54;66.90
32789;BME280;19141;48.980;8.410;2022-10-12T15:12:27;100751.84;;;19.43;67.97
32789;BME280;19141;48.980;8.410;2022-10-12T15:14:58;100760.84;;;19.37;68.85
32789;BME280;19141;48.980;8.410;2022-10-12T15:17:24;100758.72;;;19.45;68.75
32789;BME280;19141;48.980;8.410;2022-10-12T15:19:50;100748.38;;;19.36;68.93
32789;BME280;19141;48.980;8.410;2022-10-12T15:22:22;100758.94;;;19.44;69.67
32789;BME280;19141;48.980;8.410;2022-10-12T15:24:48;100755.28;;;19.32;69.50
32789;BME280;19141;48.980;8.410;2022-10-12T15:27:14;100753.34;;;19.39;68.67
32789;BME280;19141;48.980;8.410;2022-10-12T15:29:40;100754.28;;;19.26;70.52
32789;BME280;19141;48.980;8.410;2022-10-12T15:32:06;100751.47;;;19.39;70.76
32789;BME280;19141;48.980;8.410;2022-10-12T15:34:33;100748.38;;;19.36;70.25
32789;BME280;19141;48.980;8.410;2022-10-12T15:36:58;100752.56;;;19.32;70.74
32789;BME280;19141;48.980;8.410;2022-10-12T15:39:24;100745.47;;;19.06;71.74
32789;BME280;19141;48.980;8.410;2022-10-12T15:41:49;100747.13;;;19.07;71.87
32789;BME280;19141;48.980;8.410;2022-10-12T15:44:15;100738.50;;;18.91;72.21
32789;BME280;19141;48.980;8.410;2022-10-12T15:46:41;100742.19;;;18.97;72.27
32789;BME280;19141;48.980;8.410;2022-10-12T15:49:08;100736.56;;;19.05;72.36
32789;BME280;19141;48.980;8.410;2022-10-12T15:51:38;100742.31;;;19.09;72.61
32789;BME280;19141;48.980;8.410;2022-10-12T15:54:05;100734.69;;;19.06;72.80
32789;BME280;19141;48.980;8.410;2022-10-12T15:56:31;100735.84;;;18.85;73.17
32789;BME280;19141;48.980;8.410;2022-10-12T15:58:56;100736.31;;;18.68;73.52
32789;BME280;19141;48.980;8.410;2022-10-12T16:01:22;100746.34;;;18.48;75.28
32789;BME280;19141;48.980;8.410;2022-10-12T16:03:48;100740.91;;;18.55;75.83
32789;BME280;19141;48.980;8.410;2022-10-12T16:06:14;100747.41;;;18.34;75.91
32789;BME280;19141;48.980;8.410;2022-10-12T16:08:39;100746.38;;;18.35;75.87
32789;BME280;19141;48.980;8.410;2022-10-12T16:11:06;100749.69;;;18.37;76.79
32789;BME280;19141;48.980;8.410;2022-10-12T16:13:33;100739.72;;;18.31;77.02
32789;BME280;19141;48.980;8.410;2022-10-12T16:15:58;100742.44;;;18.24;77.52
32789;BME280;19141;48.980;8.410;2022-10-12T16:18:24;100741.91;;;17.96;77.96
32789;BME280;19141;48.980;8.410;2022-10-12T16:20:49;100736.09;;;17.79;78.58
32789;BME280;19141;48.980;8.410;2022-10-12T16:23:35;100734.88;;;17.81;79.05
32789;BME280;19141;48.980;8.410;2022-10-12T16:26:04;100730.31;;;17.75;79.60
32789;BME280;19141;48.980;8.410;2022-10-12T16:28:30;100729.50;;;17.75;80.31
32789;BME280;19141;48.980;8.410;2022-10-12T16:30:55;100736.53;;;17.76;80.27
32789;BME280;19141;48.980;8.410;2022-10-12T16:33:20;100731.50;;;17.59;80.85
32789;BME280;19141;48.980;8.410;2022-10-12T16:35:46;100735.03;;;17.53;82.78
32789;BME280;19141;48.980;8.410;2022-10-12T16:38:12;100735.69;;;17.42;82.55
32789;BME280;19141;48.980;8.410;2022-10-12T16:40:40;100740.63;;;17.25;84.37
32789;BME280;19141;48.980;8.410;2022-10-12T16:43:06;100740.22;;;17.28;83.78
32789;BME280;19141;48.980;8.410;2022-10-12T16:45:32;100735.81;;;17.14;83.86
32789;BME280;19141;48.980;8.410;2022-10-12T16:47:57;100742.69;;;17.17;83.23
32789;BME280;19141;48.980;8.410;2022-10-12T16:50:23;100744.94;;;17.13;83.13
32789;BME280;19141;48.980;8.410;2022-10-12T16:52:49;100745.94;;;16.99;85.50
32789;BME280;19141;48.980;8.410;2022-10-12T16:55:16;100748.16;;;16.82;86.66
32789;BME280;19141;48.980;8.410;2022-10-12T16:57:42;100756.97;;;16.63;89.26
32789;BME280;19141;48.980;8.410;2022-10-12T17:00:10;100759.13;;;16.39;90.06
32789;BME280;19141;48.980;8.410;2022-10-12T17:02:37;100749.34;;;16.25;91.19
32789;BME280;19141;48.980;8.410;2022-10-12T17:05:03;100749.88;;;16.14;92.31
32789;BME280;19141;48.980;8.410;2022-10-12T17:07:29;100751.06;;;16.05;93.69
32789;BME280;19141;48.980;8.410;2022-10-12T17:09:54;100743.31;;;15.88;94.68
32789;BME280;19141;48.980;8.410;2022-10-12T17:12:24;100747.94;;;15.73;95.70
32789;BME280;19141;48.980;8.410;2022-10-12T17:14:50;100749.09;;;15.64;97.03
32789;BME280;19141;48.980;8.410;2022-10-12T17:17:16;100756.16;;;15.65;97.50
32789;BME280;19141;48.980;8.410;2022-10-12T17:19:42;100753.75;;;15.55;97.93
32789;BME280;19141;48.980;8.410;2022-10-12T17:22:10;100762.22;;;15.52;98.03
32789;BME280;19141;48.980;8.410;2022-10-12T17:24:36;100761.44;;;15.37;98.70
32789;BME280;19141;48.980;8.410;2022-10-12T17:27:03;100754.81;;;15.33;98.76
32789;BME280;19141;48.980;8.410;2022-10-12T17:29:30;100757.97;;;15.22;99.54
32789;BME280;19141;48.980;8.410;2022-10-12T17:31:56;100768.66;;;15.15;99.34
32789;BME280;19141;48.980;8.410;2022-10-12T17:34:33;100761.16;;;15.10;99.84
32789;BME280;19141;48.980;8.410;2022-10-12T17:37:01;100763.56;;;15.05;99.86
32789;BME280;19141;48.980;8.410;2022-10-12T17:39:29;100764.38;;;14.84;100.00
32789;BME280;19141;48.980;8.410;2022-10-12T17:41:55;100768.09;;;14.83;100.00
32789;BME280;19141;48.980;8.410;2022-10-12T17:44:20;100776.25;;;14.75;100.00
32789;BME280;19141;48.980;8.410;2022-10-12T17:46:50;100776.44;;;14.59;100.00
32789;BME280;19141;48.980;8.410;2022-10-12T17:49:18;100777.94;;;14.61;100.00
32789;BME280;19141;48.980;8.410;2022-10-12T17:51:44;100782.34;;;14.69;100.00
32789;BME280;19141;48.980;8.410;2022-10-12T17:54:17;100766.00;;;14.49;100.00
32789;BME280;19141;48.980;8.410;2022-10-12T17:56:43;100783.44;;;14.45;100.00
32789;BME280;19141;48.980;8.410;2022-10-12T17:59:09;100777.63;;;14.42;100.00
32789;BME280;19141;48.980;8.410;2022-10-12T18:01:37;100772.25;;;14.27;100.00
32789;BME280;19141;48.980;8.410;2022-10-12T18:04:03;100772.75;;;14.16;100.00
32789;BME280;19141;48.980;8.410;2022-10-12T18:06:30;100773.19;;;14.19;100.00
32789;BME280;19141;48.980;8.410;2022-10-12T18:08:56;100774.19;;;14.18;100.00
32789;BME280;19141;48.980;8.410;2022-10-12T18:11:24;100778.72;;;14.03;100.00
32789;BME280;19141;48.980;8.410;2022-10-12T18:13:51;100773.72;;;14.00;100.00
32789;BME280;19141;48.980;8.410;2022-10-12T18:16:20;100786.00;;;13.94;100.00
32789;BME280;19141;48.980;8.410;2022-10-12T18:18:46;100790.16;;;13.97;100.00
32789;BME280;19141;48.980;8.410;2022-10-12T18:21:16;100779.59;;;13.95;100.00
32789;BME280;19141;48.980;8.410;2022-10-12T18:23:42;100776.41;;;14.00;100.00
32789;BME280;19141;48.980;8.410;2022-10-12T18:26:10;100790.31;;;13.95;100.00
32789;BME280;19141;48.980;8.410;2022-10-12T18:28:37;100782.47;;;13.94;100.00
32789;BME280;19141;48.980;8.410;2022-10-12T18:31:03;100787.50;;;13.97;100.00
32789;BME280;19141;48.980;8.410;2022-10-12T18:33:29;100777.84;;;13.88;100.00
32789;BME280;19141;48.980;8.410;2022-10-12T18:35:54;100779.44;;;13.97;100.00
32789;BME280;19141;48.980;8.410;2022-10-12T18:38:26;100777.22;;;14.00;100.00
32789;BME280;19141;48.980;8.410;2022-10-12T18:40:51;100786.75;;;14.03;100.00
32789;BME280;19141;48.980;8.410;2022-10-12T18:43:17;100776.69;;;14.05;100.00
32789;BME280;19141;48.980;8.410;2022-10-12T18:45:43;100789.03;;;13.91;100.00
32789;BME280;19141;48.980;8.410;2022-10-12T18:48:10;100784.84;;;13.74;100.00
32789;BME280;19141;48.980;8.410;2022-10-12T18:50:36;100781.75;;;13.62;100.00
32789;BME280;19141;48.980;8.410;2022-10-12T18:53:02;100788.50;;;13.58;100.00
32789;BME280;19141;48.980;8.410;2022-10-12T18:55:28;100791.25;;;13.50;100.00